Current Conditions
Partly Cloudy
Conditions




Pressure
984.92 (mb) - 29.08 (inHG)
Visibility

10.0 (km) - 6.2 (miles)
   Temperature
6  °C
43°F
1  °C
Dewpoint
71  %
 Humidity
   Wind Speed
8.0  m/s
18  mph
29  km/h
16  kts
   Wind Direction
 190°
Due South
   Airport Data
ENAL
Location Ă…lesund 10 km (6.22 mi)
Metar :ENAL 210820Z 19016KT 9999 VCSH FEW025 BKN076 06/01 Q0985
Fri 21st February 09:20 am
   Raw Metar Info
Raw METAR is the most common format in the world for the transmission of observational weather data. It is highly standardized through the International Civil Aviation Organization (ICAO), which allows it to be understood throughout most of the world.
   API Info
Data Provided by
https://www.checkwx.com/weather/ENAL
   © Info
CSS/SVG/PHP scripts were developed by weather34.com for use in the weather34 template © 2015-2020

Guide Info provided by Metar-Wikipedia